Hassard, Missouri
Current Conditions -  °F | °C
As of 3:35 AM on Saturday 20 Dec 2014 (Local Time) from KHAE Reporting Station
Overcast Overcast  
Wind Chill: 30°   Ceiling: 6000
Heat Index: 34°   Visibility: 7mi
Dew Point: 28°   Wind: 5mph
Humidity: 81%   Direction: 140°SE
Pressure: 30.23"   Gusts: NA
Location:  39.6493°N, 91.7067°W
Report Text: KHAE 200935Z AUTO 14004KT 7SM OVC060 01/M02 A3023 RMK AO2
Loading
Personal Weather Stations






























Interactive Weather Map New forecast layout! Learn more

10-Day Weather Forecast

Advertisements
Track Severe Weather on mobile